Geiger, Alabama
Current Conditions -  °F | °C
As of 2:56 AM on Sunday 26 Oct 2014 (Local Time) from KNMM Reporting Station
Clear Clear  
Wind Chill: 58°   Ceiling: Unl
Heat Index: 58°   Visibility: 9mi
Dew Point: 55°   Wind: 0mph
Humidity: 90%   Direction: NA
Pressure: 30.04"   Gusts: NA
Location:  32.7568°N, 88.3127°W
Report Text: KNMM 260756Z AUTO 00000KT 9SM CLR 14/13 A3004 RMK AO2 SLP180 T01440128 $
Loading
Personal Weather Stations






























Interactive Weather Map
Tropical Storm Tracking
New forecast layout! Learn more

10-Day Weather Forecast

Advertisements
Track Severe Weather on mobile